sensor_id;sensor_type;location;lat;lon;timestamp;noise_LAeq;noise_LA_min;noise_LA_max;noise_LA01;noise_LA95
72415;Laerm;60995;52.154;4.498;2023-02-22T00:00:23;43.04;38.75;53.57;;
72415;Laerm;60995;52.154;4.498;2023-02-22T00:02:57;44.39;38.52;60.48;;
72415;Laerm;60995;52.154;4.498;2023-02-22T00:05:16;44.58;38.74;60.17;;
72415;Laerm;60995;52.154;4.498;2023-02-22T00:07:34;45.71;37.69;61.09;;
72415;Laerm;60995;52.154;4.498;2023-02-22T00:09:50;43.08;37.44;60.83;;
72415;Laerm;60995;52.154;4.498;2023-02-22T00:12:06;42.43;38.08;60.60;;
72415;Laerm;60995;52.154;4.498;2023-02-22T00:14:23;42.65;37.54;62.83;;
72415;Laerm;60995;52.154;4.498;2023-02-22T00:16:42;42.94;38.05;63.85;;
72415;Laerm;60995;52.154;4.498;2023-02-22T00:18:58;42.65;37.91;50.51;;
72415;Laerm;60995;52.154;4.498;2023-02-22T00:21:15;43.91;37.54;60.60;;
72415;Laerm;60995;52.154;4.498;2023-02-22T00:23:31;41.35;37.17;49.91;;
72415;Laerm;60995;52.154;4.498;2023-02-22T00:25:49;42.17;37.36;49.64;;
72415;Laerm;60995;52.154;4.498;2023-02-22T00:28:05;42.12;37.60;51.71;;
72415;Laerm;60995;52.154;4.498;2023-02-22T00:30:25;41.49;37.57;54.20;;
72415;Laerm;60995;52.154;4.498;2023-02-22T00:32:41;43.08;37.67;56.53;;
72415;Laerm;60995;52.154;4.498;2023-02-22T00:34:57;42.10;38.06;52.13;;
72415;Laerm;60995;52.154;4.498;2023-02-22T00:37:13;42.19;37.84;52.93;;
72415;Laerm;60995;52.154;4.498;2023-02-22T00:39:29;42.35;37.65;53.48;;
72415;Laerm;60995;52.154;4.498;2023-02-22T00:41:45;43.49;37.25;57.03;;
72415;Laerm;60995;52.154;4.498;2023-02-22T00:44:01;40.91;36.56;54.73;;
72415;Laerm;60995;52.154;4.498;2023-02-22T00:46:17;41.87;37.27;55.31;;
72415;Laerm;60995;52.154;4.498;2023-02-22T00:48:33;44.27;38.13;53.27;;
72415;Laerm;60995;52.154;4.498;2023-02-22T00:50:49;42.26;38.07;50.53;;
72415;Laerm;60995;52.154;4.498;2023-02-22T00:53:10;41.68;37.60;55.19;;
72415;Laerm;60995;52.154;4.498;2023-02-22T00:55:29;43.80;37.26;59.00;;
72415;Laerm;60995;52.154;4.498;2023-02-22T00:57:45;41.57;37.07;53.08;;
72415;Laerm;60995;52.154;4.498;2023-02-22T01:00:07;41.95;37.32;48.65;;
72415;Laerm;60995;52.154;4.498;2023-02-22T01:02:27;42.17;37.59;52.11;;
72415;Laerm;60995;52.154;4.498;2023-02-22T01:04:43;43.88;37.10;55.31;;
72415;Laerm;60995;52.154;4.498;2023-02-22T01:07:00;42.42;36.74;53.67;;
72415;Laerm;60995;52.154;4.498;2023-02-22T01:09:16;42.65;37.82;51.37;;
72415;Laerm;60995;52.154;4.498;2023-02-22T01:11:32;42.90;37.82;51.00;;
72415;Laerm;60995;52.154;4.498;2023-02-22T01:13:48;42.43;37.33;53.69;;
72415;Laerm;60995;52.154;4.498;2023-02-22T01:16:05;43.25;37.71;55.32;;
72415;Laerm;60995;52.154;4.498;2023-02-22T01:18:23;41.39;36.81;49.92;;
72415;Laerm;60995;52.154;4.498;2023-02-22T01:20:40;42.64;36.59;55.82;;
72415;Laerm;60995;52.154;4.498;2023-02-22T01:22:59;41.00;36.87;46.72;;
72415;Laerm;60995;52.154;4.498;2023-02-22T01:25:19;41.60;36.98;53.95;;
72415;Laerm;60995;52.154;4.498;2023-02-22T01:27:36;42.22;37.07;58.82;;
72415;Laerm;60995;52.154;4.498;2023-02-22T01:29:53;42.60;38.06;60.57;;
72415;Laerm;60995;52.154;4.498;2023-02-22T01:32:09;41.62;37.87;51.92;;
72415;Laerm;60995;52.154;4.498;2023-02-22T01:34:26;41.68;37.42;56.89;;
72415;Laerm;60995;52.154;4.498;2023-02-22T01:36:42;41.36;37.41;50.96;;
72415;Laerm;60995;52.154;4.498;2023-02-22T01:38:58;42.87;37.20;57.46;;
72415;Laerm;60995;52.154;4.498;2023-02-22T01:41:14;42.10;37.93;58.22;;
72415;Laerm;60995;52.154;4.498;2023-02-22T01:43:33;41.29;37.09;51.11;;
72415;Laerm;60995;52.154;4.498;2023-02-22T01:45:54;41.44;36.74;49.61;;
72415;Laerm;60995;52.154;4.498;2023-02-22T01:50:31;42.12;37.83;50.06;;
72415;Laerm;60995;52.154;4.498;2023-02-22T01:52:48;42.43;37.53;52.97;;
72415;Laerm;60995;52.154;4.498;2023-02-22T01:55:07;41.43;37.72;47.60;;
72415;Laerm;60995;52.154;4.498;2023-02-22T01:57:26;41.90;37.84;55.20;;
72415;Laerm;60995;52.154;4.498;2023-02-22T01:59:48;42.51;38.23;53.42;;
72415;Laerm;60995;52.154;4.498;2023-02-22T02:02:06;42.87;36.74;52.35;;
72415;Laerm;60995;52.154;4.498;2023-02-22T02:04:23;42.68;37.40;56.11;;
72415;Laerm;60995;52.154;4.498;2023-02-22T02:06:41;40.85;37.43;46.57;;
72415;Laerm;60995;52.154;4.498;2023-02-22T02:09:03;41.20;37.73;46.72;;
72415;Laerm;60995;52.154;4.498;2023-02-22T02:11:23;41.91;37.82;49.28;;
72415;Laerm;60995;52.154;4.498;2023-02-22T02:13:43;40.72;37.16;50.08;;
72415;Laerm;60995;52.154;4.498;2023-02-22T02:15:59;42.41;37.51;50.27;;
72415;Laerm;60995;52.154;4.498;2023-02-22T02:18:15;42.41;37.81;56.56;;
72415;Laerm;60995;52.154;4.498;2023-02-22T02:31:20;41.69;37.64;58.14;;
72415;Laerm;60995;52.154;4.498;2023-02-22T02:34:01;42.53;37.68;53.83;;
72415;Laerm;60995;52.154;4.498;2023-02-22T02:36:34;41.50;37.41;49.90;;
72415;Laerm;60995;52.154;4.498;2023-02-22T02:39:33;41.86;37.93;52.84;;
72415;Laerm;60995;52.154;4.498;2023-02-22T02:41:42;42.31;37.31;53.82;;
72415;Laerm;60995;52.154;4.498;2023-02-22T02:46:26;41.53;38.16;49.82;;
72415;Laerm;60995;52.154;4.498;2023-02-22T02:48:51;42.17;38.49;49.56;;
72415;Laerm;60995;52.154;4.498;2023-02-22T02:51:12;42.45;37.46;52.00;;
72415;Laerm;60995;52.154;4.498;2023-02-22T02:53:36;41.99;37.45;50.45;;
72415;Laerm;60995;52.154;4.498;2023-02-22T02:55:53;41.20;37.76;47.78;;
72415;Laerm;60995;52.154;4.498;2023-02-22T02:58:21;41.83;37.98;53.07;;
72415;Laerm;60995;52.154;4.498;2023-02-22T03:00:39;41.58;37.83;55.24;;
72415;Laerm;60995;52.154;4.498;2023-02-22T03:02:59;43.31;38.36;54.02;;
72415;Laerm;60995;52.154;4.498;2023-02-22T03:13:34;43.25;37.75;50.98;;
72415;Laerm;60995;52.154;4.498;2023-02-22T03:16:11;42.57;38.42;50.69;;
72415;Laerm;60995;52.154;4.498;2023-02-22T03:24:05;41.78;38.25;49.20;;
72415;Laerm;60995;52.154;4.498;2023-02-22T03:26:22;42.48;38.33;48.95;;
72415;Laerm;60995;52.154;4.498;2023-02-22T03:28:41;42.74;38.70;50.43;;
72415;Laerm;60995;52.154;4.498;2023-02-22T03:31:04;42.59;37.96;52.12;;
72415;Laerm;60995;52.154;4.498;2023-02-22T03:33:44;42.01;37.49;49.44;;
72415;Laerm;60995;52.154;4.498;2023-02-22T03:36:08;42.79;38.62;50.39;;
72415;Laerm;60995;52.154;4.498;2023-02-22T03:38:31;41.86;38.27;47.54;;
72415;Laerm;60995;52.154;4.498;2023-02-22T03:40:50;43.50;38.68;57.63;;
72415;Laerm;60995;52.154;4.498;2023-02-22T03:43:13;43.54;38.86;50.85;;
72415;Laerm;60995;52.154;4.498;2023-02-22T03:45:32;42.68;38.98;56.55;;
72415;Laerm;60995;52.154;4.498;2023-02-22T03:47:56;42.67;38.10;51.51;;
72415;Laerm;60995;52.154;4.498;2023-02-22T03:50:22;42.08;38.07;49.26;;
72415;Laerm;60995;52.154;4.498;2023-02-22T03:52:41;42.60;38.45;58.78;;
72415;Laerm;60995;52.154;4.498;2023-02-22T03:54:59;42.40;38.42;50.64;;
72415;Laerm;60995;52.154;4.498;2023-02-22T03:57:28;43.42;39.12;51.73;;
72415;Laerm;60995;52.154;4.498;2023-02-22T03:59:47;43.82;38.90;59.79;;
72415;Laerm;60995;52.154;4.498;2023-02-22T04:02:04;43.60;38.72;56.09;;
72415;Laerm;60995;52.154;4.498;2023-02-22T04:04:20;44.33;39.33;52.24;;
72415;Laerm;60995;52.154;4.498;2023-02-22T04:06:36;44.42;39.49;52.30;;
72415;Laerm;60995;52.154;4.498;2023-02-22T04:08:52;42.72;38.71;50.14;;
72415;Laerm;60995;52.154;4.498;2023-02-22T04:11:08;42.64;38.58;50.59;;
72415;Laerm;60995;52.154;4.498;2023-02-22T04:13:24;42.32;38.64;48.01;;
72415;Laerm;60995;52.154;4.498;2023-02-22T04:15:42;44.40;38.86;55.41;;
72415;Laerm;60995;52.154;4.498;2023-02-22T04:17:58;44.90;39.35;56.31;;
72415;Laerm;60995;52.154;4.498;2023-02-22T04:20:15;43.73;38.91;54.34;;
72415;Laerm;60995;52.154;4.498;2023-02-22T04:22:34;43.74;39.40;56.51;;
72415;Laerm;60995;52.154;4.498;2023-02-22T04:24:50;44.19;39.09;52.47;;
72415;Laerm;60995;52.154;4.498;2023-02-22T04:27:06;44.67;39.58;53.95;;
72415;Laerm;60995;52.154;4.498;2023-02-22T04:29:22;44.50;39.56;52.89;;
72415;Laerm;60995;52.154;4.498;2023-02-22T04:31:38;45.44;39.95;54.03;;
72415;Laerm;60995;52.154;4.498;2023-02-22T04:33:54;45.04;40.78;60.81;;
72415;Laerm;60995;52.154;4.498;2023-02-22T04:36:10;44.59;39.82;53.61;;
72415;Laerm;60995;52.154;4.498;2023-02-22T04:38:28;46.04;40.05;58.54;;
72415;Laerm;60995;52.154;4.498;2023-02-22T04:40:44;45.45;40.33;59.12;;
72415;Laerm;60995;52.154;4.498;2023-02-22T04:43:00;45.75;41.27;53.26;;
72415;Laerm;60995;52.154;4.498;2023-02-22T04:45:16;44.86;40.47;53.46;;
72415;Laerm;60995;52.154;4.498;2023-02-22T04:47:33;46.16;40.75;55.10;;
72415;Laerm;60995;52.154;4.498;2023-02-22T04:49:49;46.51;40.21;59.23;;
72415;Laerm;60995;52.154;4.498;2023-02-22T04:52:05;46.04;40.49;54.11;;
72415;Laerm;60995;52.154;4.498;2023-02-22T04:54:21;45.15;39.43;55.22;;
72415;Laerm;60995;52.154;4.498;2023-02-22T04:56:38;46.33;40.40;54.19;;
72415;Laerm;60995;52.154;4.498;2023-02-22T04:58:54;47.97;42.12;55.68;;
72415;Laerm;60995;52.154;4.498;2023-02-22T05:01:10;46.12;40.30;58.43;;
72415;Laerm;60995;52.154;4.498;2023-02-22T05:03:26;45.99;41.50;57.24;;
72415;Laerm;60995;52.154;4.498;2023-02-22T05:05:42;47.07;41.37;54.36;;
72415;Laerm;60995;52.154;4.498;2023-02-22T05:07:58;47.02;41.16;54.76;;
72415;Laerm;60995;52.154;4.498;2023-02-22T05:10:14;47.15;41.58;53.74;;
72415;Laerm;60995;52.154;4.498;2023-02-22T05:12:30;45.27;40.46;52.28;;
72415;Laerm;60995;52.154;4.498;2023-02-22T05:14:46;47.16;41.43;56.36;;
72415;Laerm;60995;52.154;4.498;2023-02-22T05:17:02;46.83;41.42;57.40;;
72415;Laerm;60995;52.154;4.498;2023-02-22T05:19:19;47.36;40.83;54.37;;
72415;Laerm;60995;52.154;4.498;2023-02-22T05:21:35;49.67;42.06;57.78;;
72415;Laerm;60995;52.154;4.498;2023-02-22T05:23:51;47.85;41.19;55.43;;
72415;Laerm;60995;52.154;4.498;2023-02-22T05:26:07;48.95;40.71;57.74;;
72415;Laerm;60995;52.154;4.498;2023-02-22T05:28:25;47.84;41.77;57.49;;
72415;Laerm;60995;52.154;4.498;2023-02-22T05:30:41;48.73;41.85;58.99;;
72415;Laerm;60995;52.154;4.498;2023-02-22T05:32:57;48.56;41.35;58.09;;
72415;Laerm;60995;52.154;4.498;2023-02-22T05:35:14;46.91;41.72;55.87;;
72415;Laerm;60995;52.154;4.498;2023-02-22T05:37:30;48.36;42.42;55.58;;
72415;Laerm;60995;52.154;4.498;2023-02-22T05:39:46;48.41;41.44;56.86;;
72415;Laerm;60995;52.154;4.498;2023-02-22T05:42:02;48.32;41.62;58.97;;
72415;Laerm;60995;52.154;4.498;2023-02-22T05:44:18;48.30;41.76;57.34;;
72415;Laerm;60995;52.154;4.498;2023-02-22T05:46:34;48.48;41.84;56.56;;
72415;Laerm;60995;52.154;4.498;2023-02-22T05:48:50;48.67;42.18;58.48;;
72415;Laerm;60995;52.154;4.498;2023-02-22T05:51:06;49.04;41.98;60.33;;
72415;Laerm;60995;52.154;4.498;2023-02-22T05:53:24;47.98;41.55;56.16;;
72415;Laerm;60995;52.154;4.498;2023-02-22T05:55:40;49.04;43.01;56.74;;
72415;Laerm;60995;52.154;4.498;2023-02-22T05:57:56;48.78;43.10;56.55;;
72415;Laerm;60995;52.154;4.498;2023-02-22T06:00:25;49.15;42.01;58.00;;
72415;Laerm;60995;52.154;4.498;2023-02-22T06:02:42;49.96;44.24;59.01;;
72415;Laerm;60995;52.154;4.498;2023-02-22T06:04:58;48.59;42.19;55.46;;
72415;Laerm;60995;52.154;4.498;2023-02-22T06:07:14;47.61;42.17;54.62;;
72415;Laerm;60995;52.154;4.498;2023-02-22T06:09:30;49.80;42.17;61.60;;
72415;Laerm;60995;52.154;4.498;2023-02-22T06:11:46;49.81;41.89;56.39;;
72415;Laerm;60995;52.154;4.498;2023-02-22T06:14:02;48.86;42.82;58.01;;
72415;Laerm;60995;52.154;4.498;2023-02-22T06:16:20;49.70;41.78;58.05;;
72415;Laerm;60995;52.154;4.498;2023-02-22T06:18:36;49.80;42.48;64.88;;
72415;Laerm;60995;52.154;4.498;2023-02-22T06:20:52;48.81;42.44;56.53;;
72415;Laerm;60995;52.154;4.498;2023-02-22T06:23:08;49.19;44.00;57.50;;
72415;Laerm;60995;52.154;4.498;2023-02-22T06:25:26;47.98;43.01;58.44;;
72415;Laerm;60995;52.154;4.498;2023-02-22T06:27:43;50.21;43.36;60.66;;
72415;Laerm;60995;52.154;4.498;2023-02-22T06:30:00;48.90;42.60;58.42;;
72415;Laerm;60995;52.154;4.498;2023-02-22T06:32:16;53.25;44.01;68.97;;
72415;Laerm;60995;52.154;4.498;2023-02-22T06:34:32;51.45;43.13;66.88;;
72415;Laerm;60995;52.154;4.498;2023-02-22T06:36:48;50.27;43.06;58.52;;
72415;Laerm;60995;52.154;4.498;2023-02-22T06:39:04;53.66;45.70;67.74;;
72415;Laerm;60995;52.154;4.498;2023-02-22T06:41:20;54.10;44.60;71.89;;
72415;Laerm;60995;52.154;4.498;2023-02-22T06:43:37;54.88;44.65;69.85;;
72415;Laerm;60995;52.154;4.498;2023-02-22T06:45:53;49.99;43.80;58.45;;
72415;Laerm;60995;52.154;4.498;2023-02-22T06:48:09;50.51;44.18;58.55;;
72415;Laerm;60995;52.154;4.498;2023-02-22T06:50:27;54.80;43.06;69.09;;
72415;Laerm;60995;52.154;4.498;2023-02-22T06:52:44;49.77;44.22;56.25;;
72415;Laerm;60995;52.154;4.498;2023-02-22T06:55:02;48.64;43.49;61.37;;
72415;Laerm;60995;52.154;4.498;2023-02-22T06:57:18;48.49;42.99;56.98;;
72415;Laerm;60995;52.154;4.498;2023-02-22T06:59:34;50.53;44.67;60.06;;
72415;Laerm;60995;52.154;4.498;2023-02-22T07:01:50;51.72;45.31;59.36;;
72415;Laerm;60995;52.154;4.498;2023-02-22T07:04:07;53.12;44.36;66.53;;
72415;Laerm;60995;52.154;4.498;2023-02-22T07:06:23;49.86;42.17;56.27;;
72415;Laerm;60995;52.154;4.498;2023-02-22T07:08:39;50.41;43.91;64.89;;
72415;Laerm;60995;52.154;4.498;2023-02-22T07:10:55;51.68;45.30;57.46;;
72415;Laerm;60995;52.154;4.498;2023-02-22T07:13:11;50.19;44.08;57.65;;
72415;Laerm;60995;52.154;4.498;2023-02-22T07:15:29;51.02;44.70;57.45;;
72415;Laerm;60995;52.154;4.498;2023-02-22T07:17:45;50.86;44.95;60.23;;
72415;Laerm;60995;52.154;4.498;2023-02-22T07:20:01;51.03;45.49;58.25;;
72415;Laerm;60995;52.154;4.498;2023-02-22T07:22:18;52.18;44.26;65.15;;
72415;Laerm;60995;52.154;4.498;2023-02-22T07:24:34;50.80;44.44;56.72;;
72415;Laerm;60995;52.154;4.498;2023-02-22T07:26:50;50.49;44.67;62.00;;
72415;Laerm;60995;52.154;4.498;2023-02-22T07:29:07;54.07;45.49;66.17;;
72415;Laerm;60995;52.154;4.498;2023-02-22T07:31:23;50.57;44.67;66.85;;
72415;Laerm;60995;52.154;4.498;2023-02-22T07:33:39;51.39;46.50;59.82;;
72415;Laerm;60995;52.154;4.498;2023-02-22T07:35:55;49.46;44.50;56.60;;
72415;Laerm;60995;52.154;4.498;2023-02-22T07:38:12;50.54;42.69;57.80;;
72415;Laerm;60995;52.154;4.498;2023-02-22T07:40:29;50.00;44.31;58.24;;
72415;Laerm;60995;52.154;4.498;2023-02-22T07:43:01;50.89;45.07;62.13;;
72415;Laerm;60995;52.154;4.498;2023-02-22T07:45:17;52.33;45.90;66.44;;
72415;Laerm;60995;52.154;4.498;2023-02-22T07:47:33;52.33;46.71;71.15;;
72415;Laerm;60995;52.154;4.498;2023-02-22T07:49:49;53.89;46.47;61.92;;
72415;Laerm;60995;52.154;4.498;2023-02-22T07:52:06;52.48;47.16;60.32;;
72415;Laerm;60995;52.154;4.498;2023-02-22T07:54:22;52.97;45.59;66.00;;
72415;Laerm;60995;52.154;4.498;2023-02-22T07:56:47;57.17;46.31;68.28;;
72415;Laerm;60995;52.154;4.498;2023-02-22T07:59:05;51.08;44.46;62.22;;
72415;Laerm;60995;52.154;4.498;2023-02-22T08:01:21;51.63;45.05;61.96;;
72415;Laerm;60995;52.154;4.498;2023-02-22T08:03:39;52.62;47.47;58.87;;
72415;Laerm;60995;52.154;4.498;2023-02-22T08:05:56;51.52;44.14;60.03;;
72415;Laerm;60995;52.154;4.498;2023-02-22T08:08:15;55.34;44.81;68.47;;
72415;Laerm;60995;52.154;4.498;2023-02-22T08:10:33;52.33;44.90;62.26;;
72415;Laerm;60995;52.154;4.498;2023-02-22T08:12:50;53.20;44.71;59.15;;
72415;Laerm;60995;52.154;4.498;2023-02-22T08:15:12;51.02;43.96;57.23;;
72415;Laerm;60995;52.154;4.498;2023-02-22T08:17:29;52.38;45.91;71.22;;
72415;Laerm;60995;52.154;4.498;2023-02-22T08:19:45;56.78;46.91;75.30;;
72415;Laerm;60995;52.154;4.498;2023-02-22T08:22:01;52.78;47.06;62.44;;
72415;Laerm;60995;52.154;4.498;2023-02-22T08:24:17;54.43;48.42;68.85;;
72415;Laerm;60995;52.154;4.498;2023-02-22T08:26:33;51.74;45.06;72.79;;
72415;Laerm;60995;52.154;4.498;2023-02-22T08:28:50;54.04;45.30;68.01;;
72415;Laerm;60995;52.154;4.498;2023-02-22T08:31:06;51.48;45.62;63.94;;
72415;Laerm;60995;52.154;4.498;2023-02-22T08:33:23;52.57;47.80;63.09;;
72415;Laerm;60995;52.154;4.498;2023-02-22T08:35:39;51.49;45.14;70.94;;
72415;Laerm;60995;52.154;4.498;2023-02-22T08:38:02;51.21;45.18;57.69;;
72415;Laerm;60995;52.154;4.498;2023-02-22T08:40:21;51.66;45.62;61.42;;
72415;Laerm;60995;52.154;4.498;2023-02-22T08:42:37;51.95;46.00;58.35;;
72415;Laerm;60995;52.154;4.498;2023-02-22T08:44:53;52.69;47.09;58.18;;
72415;Laerm;60995;52.154;4.498;2023-02-22T08:47:10;51.60;45.64;57.45;;
72415;Laerm;60995;52.154;4.498;2023-02-22T08:49:26;52.48;46.22;61.84;;
72415;Laerm;60995;52.154;4.498;2023-02-22T08:51:42;50.09;45.32;61.08;;
72415;Laerm;60995;52.154;4.498;2023-02-22T08:53:58;54.00;47.89;60.49;;
72415;Laerm;60995;52.154;4.498;2023-02-22T08:56:14;52.80;47.03;59.06;;
72415;Laerm;60995;52.154;4.498;2023-02-22T08:58:30;53.09;47.03;66.76;;
72415;Laerm;60995;52.154;4.498;2023-02-22T09:00:46;53.29;48.46;59.07;;
72415;Laerm;60995;52.154;4.498;2023-02-22T09:03:04;54.40;49.00;67.53;;
72415;Laerm;60995;52.154;4.498;2023-02-22T09:05:20;53.56;46.62;63.95;;
72415;Laerm;60995;52.154;4.498;2023-02-22T09:07:40;51.75;46.01;61.61;;
72415;Laerm;60995;52.154;4.498;2023-02-22T09:09:57;51.71;46.35;62.86;;
72415;Laerm;60995;52.154;4.498;2023-02-22T09:12:13;51.37;45.41;62.90;;
72415;Laerm;60995;52.154;4.498;2023-02-22T09:14:29;52.45;47.30;58.43;;
72415;Laerm;60995;52.154;4.498;2023-02-22T09:16:45;52.38;46.10;60.83;;
72415;Laerm;60995;52.154;4.498;2023-02-22T09:19:01;52.58;46.77;61.91;;
72415;Laerm;60995;52.154;4.498;2023-02-22T09:21:17;51.53;46.45;59.88;;
72415;Laerm;60995;52.154;4.498;2023-02-22T09:23:33;54.59;47.26;75.10;;
72415;Laerm;60995;52.154;4.498;2023-02-22T09:25:49;56.02;48.51;68.93;;
72415;Laerm;60995;52.154;4.498;2023-02-22T09:28:05;51.96;45.06;58.60;;
72415;Laerm;60995;52.154;4.498;2023-02-22T09:30:33;52.38;47.92;59.44;;
72415;Laerm;60995;52.154;4.498;2023-02-22T09:32:51;51.02;45.24;62.51;;
72415;Laerm;60995;52.154;4.498;2023-02-22T09:35:08;52.99;47.36;64.21;;
72415;Laerm;60995;52.154;4.498;2023-02-22T09:37:24;52.21;46.73;75.55;;
72415;Laerm;60995;52.154;4.498;2023-02-22T09:39:40;52.37;46.17;71.87;;
72415;Laerm;60995;52.154;4.498;2023-02-22T09:46:51;52.33;47.84;58.00;;
72415;Laerm;60995;52.154;4.498;2023-02-22T09:49:21;56.60;46.99;80.08;;
72415;Laerm;60995;52.154;4.498;2023-02-22T09:51:44;51.20;45.32;55.99;;
72415;Laerm;60995;52.154;4.498;2023-02-22T09:54:10;53.74;45.14;73.79;;
72415;Laerm;60995;52.154;4.498;2023-02-22T09:56:31;55.61;48.12;73.96;;
72415;Laerm;60995;52.154;4.498;2023-02-22T09:58:50;50.53;45.52;60.63;;
72415;Laerm;60995;52.154;4.498;2023-02-22T10:01:28;53.86;46.01;63.43;;
72415;Laerm;60995;52.154;4.498;2023-02-22T10:06:27;55.30;48.31;65.71;;
72415;Laerm;60995;52.154;4.498;2023-02-22T10:08:44;51.46;45.47;61.47;;
72415;Laerm;60995;52.154;4.498;2023-02-22T10:11:23;50.87;44.92;60.79;;
72415;Laerm;60995;52.154;4.498;2023-02-22T10:13:46;52.55;44.65;66.19;;
72415;Laerm;60995;52.154;4.498;2023-02-22T10:19:42;51.18;45.25;61.01;;
72415;Laerm;60995;52.154;4.498;2023-02-22T10:25:01;53.27;46.47;70.52;;
72415;Laerm;60995;52.154;4.498;2023-02-22T10:27:23;53.27;44.26;65.48;;
72415;Laerm;60995;52.154;4.498;2023-02-22T10:29:46;51.28;46.29;66.37;;
72415;Laerm;60995;52.154;4.498;2023-02-22T10:32:04;51.45;46.03;60.69;;
72415;Laerm;60995;52.154;4.498;2023-02-22T10:34:23;51.73;44.86;71.72;;
72415;Laerm;60995;52.154;4.498;2023-02-22T10:36:42;51.87;46.48;61.42;;
72415;Laerm;60995;52.154;4.498;2023-02-22T10:39:24;51.38;45.83;60.45;;
72415;Laerm;60995;52.154;4.498;2023-02-22T10:41:48;52.28;45.69;60.71;;
72415;Laerm;60995;52.154;4.498;2023-02-22T10:44:06;53.56;47.20;64.95;;
72415;Laerm;60995;52.154;4.498;2023-02-22T10:46:24;53.32;46.41;65.60;;
72415;Laerm;60995;52.154;4.498;2023-02-22T10:48:44;51.20;44.84;60.11;;
72415;Laerm;60995;52.154;4.498;2023-02-22T10:51:05;51.14;45.81;60.92;;
72415;Laerm;60995;52.154;4.498;2023-02-22T10:53:21;52.23;45.68;66.74;;
72415;Laerm;60995;52.154;4.498;2023-02-22T10:56:31;51.16;46.33;61.21;;
72415;Laerm;60995;52.154;4.498;2023-02-22T11:01:20;49.17;44.21;60.76;;
72415;Laerm;60995;52.154;4.498;2023-02-22T11:03:36;51.01;44.63;60.53;;
72415;Laerm;60995;52.154;4.498;2023-02-22T11:05:52;53.02;45.45;69.02;;
72415;Laerm;60995;52.154;4.498;2023-02-22T11:10:31;51.49;46.10;61.17;;
72415;Laerm;60995;52.154;4.498;2023-02-22T11:12:48;51.29;45.71;60.23;;
72415;Laerm;60995;52.154;4.498;2023-02-22T11:17:34;50.27;44.71;61.19;;
72415;Laerm;60995;52.154;4.498;2023-02-22T11:19:50;50.11;43.70;60.44;;
72415;Laerm;60995;52.154;4.498;2023-02-22T11:22:27;52.14;46.71;61.44;;
72415;Laerm;60995;52.154;4.498;2023-02-22T11:24:51;51.72;45.61;61.17;;
72415;Laerm;60995;52.154;4.498;2023-02-22T11:27:25;49.83;43.74;60.85;;
72415;Laerm;60995;52.154;4.498;2023-02-22T11:29:41;50.43;43.88;64.76;;
72415;Laerm;60995;52.154;4.498;2023-02-22T11:32:11;50.14;43.79;61.04;;
72415;Laerm;60995;52.154;4.498;2023-02-22T11:34:36;54.57;44.01;75.48;;
72415;Laerm;60995;52.154;4.498;2023-02-22T11:36:52;52.85;45.46;64.30;;
72415;Laerm;60995;52.154;4.498;2023-02-22T11:39:29;49.48;43.13;60.65;;
72415;Laerm;60995;52.154;4.498;2023-02-22T11:41:48;51.24;45.48;64.14;;
72415;Laerm;60995;52.154;4.498;2023-02-22T11:44:27;51.12;44.25;61.19;;
72415;Laerm;60995;52.154;4.498;2023-02-22T11:46:43;49.73;43.62;61.18;;
72415;Laerm;60995;52.154;4.498;2023-02-22T11:49:05;49.20;43.16;62.53;;
72415;Laerm;60995;52.154;4.498;2023-02-22T11:56:34;52.55;43.81;66.85;;
72415;Laerm;60995;52.154;4.498;2023-02-22T11:59:02;49.79;43.64;60.28;;
72415;Laerm;60995;52.154;4.498;2023-02-22T12:04:18;49.74;44.61;61.07;;
72415;Laerm;60995;52.154;4.498;2023-02-22T12:09:12;50.13;45.03;60.68;;
72415;Laerm;60995;52.154;4.498;2023-02-22T12:14:25;53.50;43.19;66.34;;
72415;Laerm;60995;52.154;4.498;2023-02-22T12:17:17;51.53;43.67;62.91;;
72415;Laerm;60995;52.154;4.498;2023-02-22T12:19:39;48.51;41.90;58.79;;
72415;Laerm;60995;52.154;4.498;2023-02-22T12:22:00;52.32;43.04;62.84;;
72415;Laerm;60995;52.154;4.498;2023-02-22T12:24:24;50.33;45.13;61.51;;
72415;Laerm;60995;52.154;4.498;2023-02-22T12:26:50;49.92;43.06;64.64;;
72415;Laerm;60995;52.154;4.498;2023-02-22T12:31:38;50.40;43.88;61.52;;
72415;Laerm;60995;52.154;4.498;2023-02-22T12:34:27;50.69;45.38;61.31;;
72415;Laerm;60995;52.154;4.498;2023-02-22T12:42:01;50.67;45.27;62.69;;
72415;Laerm;60995;52.154;4.498;2023-02-22T12:44:27;50.64;44.72;60.38;;
72415;Laerm;60995;52.154;4.498;2023-02-22T12:46:49;57.67;45.56;69.99;;
72415;Laerm;60995;52.154;4.498;2023-02-22T12:49:35;51.26;44.79;62.42;;
72415;Laerm;60995;52.154;4.498;2023-02-22T12:52:03;50.94;45.41;59.96;;
72415;Laerm;60995;52.154;4.498;2023-02-22T12:54:37;50.38;44.54;61.76;;
72415;Laerm;60995;52.154;4.498;2023-02-22T12:56:58;50.82;44.28;67.29;;
72415;Laerm;60995;52.154;4.498;2023-02-22T12:59:22;51.19;44.67;60.33;;
72415;Laerm;60995;52.154;4.498;2023-02-22T13:01:43;53.07;46.93;66.60;;
72415;Laerm;60995;52.154;4.498;2023-02-22T13:04:00;51.52;46.38;60.42;;
72415;Laerm;60995;52.154;4.498;2023-02-22T13:06:35;58.57;45.63;71.08;;
72415;Laerm;60995;52.154;4.498;2023-02-22T13:11:30;50.12;44.56;60.66;;
72415;Laerm;60995;52.154;4.498;2023-02-22T13:16:44;49.70;43.73;61.96;;
72415;Laerm;60995;52.154;4.498;2023-02-22T13:24:18;51.05;42.87;69.43;;
72415;Laerm;60995;52.154;4.498;2023-02-22T13:29:43;56.60;42.11;88.24;;
72415;Laerm;60995;52.154;4.498;2023-02-22T13:34:29;54.90;44.39;79.13;;
72415;Laerm;60995;52.154;4.498;2023-02-22T13:41:50;53.13;42.81;66.59;;
72415;Laerm;60995;52.154;4.498;2023-02-22T13:52:02;48.01;41.55;54.77;;
72415;Laerm;60995;52.154;4.498;2023-02-22T13:54:39;48.80;42.44;60.95;;
72415;Laerm;60995;52.154;4.498;2023-02-22T13:56:56;48.98;41.81;59.88;;
72415;Laerm;60995;52.154;4.498;2023-02-22T13:59:32;49.11;41.43;61.24;;
72415;Laerm;60995;52.154;4.498;2023-02-22T14:01:49;51.85;40.81;65.51;;
72415;Laerm;60995;52.154;4.498;2023-02-22T14:06:42;49.39;42.40;60.54;;
72415;Laerm;60995;52.154;4.498;2023-02-22T14:08:58;49.61;43.36;60.75;;
72415;Laerm;60995;52.154;4.498;2023-02-22T14:18:27;50.51;43.07;59.60;;
72415;Laerm;60995;52.154;4.498;2023-02-22T14:20:44;50.78;43.63;65.26;;
72415;Laerm;60995;52.154;4.498;2023-02-22T14:25:42;50.70;41.05;63.57;;
72415;Laerm;60995;52.154;4.498;2023-02-22T14:27:59;49.07;40.40;63.89;;
72415;Laerm;60995;52.154;4.498;2023-02-22T14:30:42;50.64;42.77;60.29;;
72415;Laerm;60995;52.154;4.498;2023-02-22T14:32:59;49.53;43.02;56.20;;
72415;Laerm;60995;52.154;4.498;2023-02-22T14:35:16;49.78;42.97;68.13;;
72415;Laerm;60995;52.154;4.498;2023-02-22T14:37:37;51.02;44.18;66.55;;
72415;Laerm;60995;52.154;4.498;2023-02-22T14:42:35;50.91;43.37;61.74;;
72415;Laerm;60995;52.154;4.498;2023-02-22T14:44:58;51.60;42.82;66.53;;
72415;Laerm;60995;52.154;4.498;2023-02-22T14:47:19;48.97;41.36;60.73;;
72415;Laerm;60995;52.154;4.498;2023-02-22T14:49:41;49.81;42.10;69.85;;
72415;Laerm;60995;52.154;4.498;2023-02-22T14:52:03;49.35;43.04;60.51;;
72415;Laerm;60995;52.154;4.498;2023-02-22T14:55:03;50.14;42.47;61.93;;
72415;Laerm;60995;52.154;4.498;2023-02-22T14:57:24;50.06;42.44;61.01;;